Terminal Aerodrome Forecast
Issued by NWS Pittsburgh, PA

Current Version | Previous Version | Graphics & Text | Print | Product List | Glossary On
Versions: 1 2 3 4 5 6 7 8 9 10 11 12 13 14 15 16 17 18 19 20 21 22 23 24 25 26 27 28 29 30 31 32 33
000
FTUS41 KPBZ 261100
TAFPIT
TAF
KPIT 261132Z 2612/2718 01008KT 6SM -SN BR OVC007
     FM261600 35010KT 1 1/2SM -SN OVC015
     FM262200 32008KT 5SM -SHSN BKN025
     FM270300 32006KT P6SM BKN020=

USA.gov is the U.S. government's official web portal to all federal, state and local government web resources and services.